Tiempo atmosférico en la estación meteorológica de Tarifa, Cádiz (32 m.)



Fecha
DESCASC
Temp. máxima en grados centígrados (hora)
DESCASC
Temp. mínima en grados centígrados (hora)
DESCASC
Temp. media en grados centígrados
DESCASC
Racha de viento máxima en m/sg (hora)
DESCASC
Velocidad máxima media en intervalos de 10 minutos(hora)
DESCASC
Precipitaciones diarias en mm
DESCASC
Precipitaciones de 00:00 a 06:00 en mm
DESCASC
Precipitaciones de 06:00 a 12:00 en mm
DESCASC
Precipitaciones de 12:00 a 18:00 en mm
DESCASC
Precipitaciones de 18:00 a 24:00 en mm
DESCASC
30-11-2020 18.1 (14:40) 15.7 (07:30) 16.9 18.89 (09:50) 11.67 (09:50) 0 0 0 0 0
29-11-2020 16.7 (13:10) 14.2 (00:00) 15.5 13.89 (02:20) 10.56 (02:20) 8.6 8.3 0.3 0 0
28-11-2020 17.1 (15:30) 12.1 (00:00) 14.6 14.17 (23:59) 9.17 (23:59) 2.3 0.5 0 0 1.8
27-11-2020 15.4 (13:20) 9.1 (00:00) 12.3 10.83 (14:20) 6.67 (14:20) 9.5 0 0 2.4 7.1
26-11-2020 15.3 (16:50) 9.6 (00:00) 12.5 15 (12:30) 11.11 (10:20) 3.3 2.7 0.6 0 0
25-11-2020 17.9 (10:50) 13.4 (00:00) 15.6 13.61 (15:40) 5.56 (08:20) 12 0 0.2 5.7 6.1
24-11-2020 18.2 (13:30) 14.3 (00:00) 16.3 14.17 (00:20) 9.17 (00:20) 0 0 0 0 0
23-11-2020 17.8 (13:50) 15.6 (00:00) 16.7 18.33 (11:50) 12.78 (09:50) 0 0 0 0 0
22-11-2020 17.9 (13:40) 15.7 (00:00) 16.8 21.67 (00:20) 14.44 (06:30) 0 0 0 0 0
21-11-2020 19.5 (14:30) 16.4 (00:00) 17.9 21.11 (23:59) 14.72 (23:59) 0 0 0 0 0
20-11-2020 19.5 (13:00) 16.5 (00:00) 18 18.61 (03:50) 11.39 (03:50) 0 0 0 0 0
19-11-2020 19.5 (13:10) 16.6 (00:00) 18.1 19.17 (14:30) 13.06 (15:00) 0 0 0 0 0
18-11-2020 19.3 (13:20) 16.6 (00:00) 17.9 15.83 (21:20) 11.11 (21:50) 0 0 0 0 0
17-11-2020 20.3 (12:20) 12.1 (00:00) 16.2 12.78 (10:40) 9.17 (11:40) 0 0 0 0 0
16-11-2020 21 (14:30) 14.4 (00:00) 17.7 9.72 (01:10) 6.39 (00:10) 0 0 0 0 0
15-11-2020 22.5 (14:00) 16.1 (00:00) 19.3 11.39 (14:00) 7.5 (14:20) 0 0 0 0 0
14-11-2020 20.6 (16:10) 16.6 (00:00) 18.6 7.22 (00:30) 5 (00:30) 2.3 0 2.2 0.1 0
13-11-2020 19.3 (12:10) 16.7 (00:00) 18 12.22 (00:40) 8.33 (00:30) 0 0 0 0 0
12-11-2020 19.3 (15:00) 16.8 (00:00) 18 16.67 (11:00) 10.56 (11:30) 0 0 0 0 0
11-11-2020 19.4 (13:50) 16.6 (00:00) 18 17.5 (13:20) 11.11 (09:00) 0 0 0 0 0
10-11-2020 20.2 (12:00) 11.4 (00:00) 15.8 13.61 (23:50) 8.06 (23:50) 0 0 0 0 0
09-11-2020 19.1 (15:40) 13.7 (00:00) 16.4 6.67 (23:50) 4.44 (23:40) 0.3 0 0.3 0 0
08-11-2020 20.5 (14:50) 16.1 (00:00) 18.3 10 (11:40) 6.67 (11:10) 0 0 0 0 0
07-11-2020 21.4 (13:30) 14.1 (00:00) 17.8 13.06 (07:30) 8.33 (02:20) 1 1 0 0 0
06-11-2020 23 (13:20) 17.9 (00:00) 20.4 16.67 (08:10) 11.11 (08:50) 0.2 0 0 0 0.2
05-11-2020 20.9 (12:40) 15.2 (00:00) 18 14.44 (16:40) 10 (16:30) 1.3 1.3 0 0 0
04-11-2020 18.3 (15:10) 16 (00:00) 17.1 12.5 (21:40) 9.17 (21:40) 0.7 0 0 0 0.7
03-11-2020 18.4 (14:30) 14.2 (00:00) 16.3 11.67 (00:40) 8.33 (00:30) 0 0 0 0 0
02-11-2020 19.3 (14:40) 15.7 (00:00) 17.5 15.83 (11:00) 11.11 (12:20) 0 0 0 0 0

Gráficas

Temp. máximas Temp. mínimas Temp. medias Precipitaciones Rachas de viento máximas Velocidades máximas media en intervalos de 10 minutos

Datos horarios

Fecha y hora oficial Temperatura (ºC) Velocidad del viento (km/h) Dirección del viento Racha (km/h) Dirección de racha Precipitación (mm) Presión (hPa) Tendencia (hPa) Humedad (%)
2020-12-01 23:00:00 11.3 6 Norte 7 Norte 0 1013.8 -- 97
2020-12-01 22:00:00 12.2 7 Norte 10 Norte 0 1014 -- 95
2020-12-01 21:00:00 12.4 7 Norte 11 Norte 0 1013.8 -- 87
2020-12-01 20:00:00 13.9 6 Norte 16 Norte 0 1013.9 -- 83
2020-12-01 19:00:00 15.3 8 Nordeste 18 Este 0 1013.9 -- 85
2020-12-01 18:00:00 16.4 12 Este 24 Este 0 1013.4 -- 86
2020-12-01 17:00:00 17.3 17 Este 28 Este 0 1013.3 -- 79
2020-12-01 16:00:00 17.7 21 Este 30 Este 0 1013.6 -- 80
2020-12-01 15:00:00 17.8 22 Este 31 Este 0 1014.1 -- 84
2020-12-01 14:00:00 18.1 22 Este 30 Este 0 1015 -- 83
2020-12-01 13:00:00 18.1 19 Este 29 Este 0 1015.9 -- 84
2020-12-01 12:00:00 18.1 18 Este 28 Este 0 1016.7 -- 83
2020-12-01 11:00:00 17.7 20 Este 32 Este 0 1017 -- 82
2020-12-01 10:00:00 16.9 12 Nordeste 28 Este 0 1017 -- 84
2020-12-01 09:00:00 15.9 14 Nordeste 28 Nordeste 0 1016.6 -- 88
2020-12-01 08:00:00 15.3 16 Nordeste 30 Nordeste 0 1016.3 -- 90
2020-12-01 07:00:00 15.8 14 Nordeste 27 Nordeste 0 1016.1 -- 90
2020-12-01 06:00:00 15.9 15 Nordeste 26 Este 0 1016.1 -- 90
2020-12-01 05:00:00 16.2 16 Nordeste 36 Este 0 1016.2 -- 93
2020-12-01 04:00:00 16.2 24 Nordeste 36 Este 0 1015.8 -- 93
2020-12-01 03:00:00 16.1 19 Nordeste 35 Nordeste 0 1016.2 -- 93
2020-12-01 02:00:00 16.2 17 Nordeste 32 Este 0 1016.2 -- 94
2020-12-01 01:00:00 16.3 20 Nordeste 45 Este 0 1016.1 -- 93
2020-12-01 00:00:00 16.4 26 Este 44 Este 0 1015.7 -- 92
2020-11-30 23:00:00 16.3 20 Nordeste 38 Este 0 1015.9 -- 91
2020-11-30 22:00:00 16.3 23 Nordeste 42 Este 0 1015.5 -- 90
2020-11-30 21:00:00 16.5 28 Nordeste 46 Este 0 1015.1 -- 89
2020-11-30 20:00:00 16.5 26 Nordeste 48 Este 0 1014.4 -- 90
2020-11-30 19:00:00 16.5 26 Nordeste 44 Este 0 1014.1 -- 91
2020-11-30 18:00:00 16.6 28 Nordeste 50 Este 0 1013.4 -- 88
2020-11-30 17:00:00 16.8 31 Este 54 Este 0 1012.9 -- 88
2020-11-30 16:00:00 17 31 Este 53 Este 0 1012.8 -- 88
2020-11-30 15:00:00 17.8 32 Este 57 Este 0 1012.8 -- 85
2020-11-30 14:00:00 17.1 35 Nordeste 53 Este 0 1012.9 -- 86
2020-11-30 13:00:00 17.3 33 Este 55 Este 0 1013.1 -- 85
2020-11-30 12:00:00 17.4 32 Este 57 Nordeste 0 1013.3 -- 85
2020-11-30 11:00:00 17.1 37 Este 65 Este 0 1013.3 -- 85
2020-11-30 10:00:00 16.7 40 Nordeste 68 Este 0 1012.1 -- 85
2020-11-30 09:00:00 16.2 36 Nordeste 57 Este 0 1011.6 -- 88
2020-11-30 08:00:00 -- -- -- -- -- -- -- -- --
2020-11-30 07:00:00 15.9 31 Nordeste 54 Este 0 1011.5 -- 92
2020-11-30 06:00:00 16.2 31 Este 49 Este 0 1011.2 -- 91
2020-11-30 05:00:00 16.1 30 Nordeste 57 Nordeste 0 1010.4 -- 91
2020-11-30 04:00:00 16.2 32 Nordeste 50 Este 0 1010.9 -- 92
2020-11-30 03:00:00 16.3 29 Nordeste 49 Nordeste 0 1010.9 -- 91
2020-11-30 02:00:00 16.4 30 Nordeste 48 Este 0 1011.1 -- 91
2020-11-30 01:00:00 16.4 27 Nordeste 46 Este 0 1011.5 -- 90
2020-11-30 00:00:00 16.4 29 Nordeste 47 Nordeste 0 1011.1 -- 92
2020-11-29 23:00:00 16.3 24 Nordeste 40 Nordeste 0 1011.1 -- 93
2020-11-29 22:00:00 16.2 20 Nordeste 34 Nordeste 0 1011 -- 94
2020-11-29 21:00:00 15.9 19 Nordeste 37 Este 0 1010.7 -- 92
2020-11-29 20:00:00 15.8 22 Nordeste 35 Este 0 1010.5 -- 90
2020-11-29 19:00:00 15.8 22 Nordeste 40 Nordeste 0 1009.9 -- 89
2020-11-29 18:00:00 15.8 24 Nordeste 37 Este 0 1009.5 -- 90
2020-11-29 17:00:00 15.8 22 Nordeste 39 Nordeste 0 1008.9 -- 91
2020-11-29 16:00:00 16.3 24 Nordeste 37 Este 0 1008.8 -- 89
2020-11-29 15:00:00 16.4 19 Nordeste 34 Nordeste 0 1008.7 -- 91
2020-11-29 14:00:00 16.4 20 Este 32 Nordeste 0 1009 -- 91
2020-11-29 13:00:00 16.4 20 Nordeste 29 Nordeste 0 1009.2 -- 92
2020-11-29 12:00:00 16 12 Nordeste 21 Este 0.1 1009.9 -- 92
2020-11-29 11:00:00 15.9 10 Este 24 Sudeste 0 1009.8 -- 88
2020-11-29 10:00:00 15.5 12 Sudeste 27 Este 0.2 1009.5 -- 88
2020-11-29 09:00:00 14.7 12 Nordeste 22 Nordeste 0 1008.8 -- 89
2020-11-29 08:00:00 14.7 11 Este 23 Sudeste 0 1008.1 -- 86
2020-11-29 07:00:00 14.7 11 Este 20 Sudeste 0 1007.6 -- 87
2020-11-29 06:00:00 14.7 8 Este 15 Sur 0 1007.6 -- 88
2020-11-29 05:00:00 14.5 10 Sur 30 Sur 0.1 1007.9 -- 89
2020-11-29 04:00:00 14.4 25 Sur 41 Sur 1.3 1007.6 -- 92
2020-11-29 03:00:00 14.4 33 Sur 50 Sur 3.6 1007.1 -- 95
2020-11-29 02:00:00 14.8 34 Sur 44 Sur 0.7 1006.8 -- 89
2020-11-29 01:00:00 14.4 27 Sur 49 Sur 2.6 1007 -- 95
2020-11-29 00:00:00 14.5 33 Sur 51 Sur 1.2 1006.6 -- 95
2020-11-28 23:00:00 15.5 23 Sudoeste 45 Sur 0.4 1006.6 -- 92
2020-11-28 22:00:00 15.8 28 Sur 48 Sur 0 1005.8 -- 91
2020-11-28 21:00:00 15.8 21 Sur 34 Sur 0 1006 -- 91
2020-11-28 20:00:00 15.8 16 Sur 30 Sur 0 1005.6 -- 91
2020-11-28 19:00:00 15.7 14 Sur 27 Sudoeste 0.2 1005.3 -- 92
2020-11-28 18:00:00 15.9 18 Sudoeste 30 Sur 0 1005 -- 87
2020-11-28 17:00:00 16.5 19 Sudoeste -- -- -- 1004.6 -- 82
2020-11-28 16:00:00 16.4 25 Sudoeste 37 Sudoeste 0 1004.4 -- 84
2020-11-28 15:00:00 17 21 Sudoeste 39 Sudoeste 0 1004.3 -- 82
2020-11-28 14:00:00 16.6 27 Sudoeste 38 Sudoeste 0 1004.4 -- 82
2020-11-28 13:00:00 16.3 25 Sudoeste 36 Sudoeste 0 1004.8 -- 85
2020-11-28 12:00:00 15.8 24 Sudoeste 40 Sur 0 1005.4 -- 82
2020-11-28 11:00:00 14.4 19 Sudoeste 36 Sur 0 1005.2 -- 87
2020-11-28 10:00:00 13.9 24 Sudoeste 42 Sudoeste 0 1005 -- 89
2020-11-28 09:00:00 13.5 24 Sudoeste 37 Sudoeste 0 1004.3 -- 90
2020-11-28 08:00:00 13.4 21 Sudoeste 41 Sudoeste 0 1003.4 -- 88
2020-11-28 07:00:00 13 26 Sudoeste 47 Sudoeste 0 1002.7 -- 91
2020-11-28 06:00:00 12.9 25 Sudoeste 40 Sudoeste 0 1002.4 -- 91
2020-11-28 05:00:00 12.8 25 Sudoeste 45 Sur 0 1002.3 -- 91
2020-11-28 04:00:00 12.6 26 Sudoeste 41 Sudoeste 0 1001.9 -- 91
2020-11-28 03:00:00 12.2 22 Sudoeste 38 Sur 0.1 1002.5 -- 93
2020-11-28 02:00:00 12.4 21 Sudoeste 35 Sudoeste 0.4 1002.8 -- 91
2020-11-28 01:00:00 12.7 24 Sudoeste 40 Sudoeste 0 1002.7 -- 85
2020-11-28 00:00:00 12.5 23 Sudoeste 36 Sudoeste 0 1002.4 -- 81
2020-11-27 23:00:00 12.4 19 Sudoeste 39 Sudoeste 0 1002.4 -- 82
2020-11-27 22:00:00 12.1 19 Sudoeste 35 Sur 0 1002.4 -- 84
2020-11-27 21:00:00 12.3 19 Sudoeste 36 Sur 0 1002.4 -- 90
2020-11-27 20:00:00 12 18 Sudoeste 32 Sur 1.2 1002.3 -- 91
2020-11-27 19:00:00 12 15 Sudoeste 34 Sur 5.9 1002.1 -- 91
2020-11-27 18:00:00 12.8 19 Sudoeste 31 Sudoeste 2.4 1002.1 -- 85
2020-11-27 17:00:00 13.7 17 Sudoeste 33 Sudoeste 0 1001.4 -- 76
2020-11-27 16:00:00 14.3 19 Sudoeste 34 Sudoeste 0 1000.9 -- 73
2020-11-27 15:00:00 15 22 Sudoeste 39 Sudoeste 0 1001 -- 70
2020-11-27 14:00:00 14.7 19 Sudoeste 35 Sudoeste 0 1001.4 -- 70
2020-11-27 13:00:00 14.9 23 Sudoeste 36 Sudoeste 0 1001.7 -- 66
2020-11-27 12:00:00 14.3 18 Sudoeste 32 Sur 0 1002.7 -- 70
2020-11-27 11:00:00 14.3 13 Sudoeste 27 Sur 0 1002.9 -- 71
2020-11-27 10:00:00 13.7 13 Sur 25 Sur 0 1002.8 -- 75
2020-11-27 09:00:00 9.9 5 Norte 9 Sudoeste 0 1002.2 -- 86
2020-11-27 08:00:00 10.7 4 Sudoeste 13 Sudoeste 0 1001.9 -- 78
2020-11-27 07:00:00 11.4 5 Sudoeste 13 Sudoeste 0 1001.6 -- 76
2020-11-27 06:00:00 9.7 4 Norte 8 Norte 0 1001.7 -- 87
2020-11-27 05:00:00 9.8 0 Calma 7 Nordeste 0 1001.1 -- 85
2020-11-27 04:00:00 9.3 4 Norte 7 Norte 0 1001.5 -- 89
2020-11-27 03:00:00 9.4 4 Nordeste 9 Nordeste 0 1002.1 -- 87
2020-11-27 02:00:00 10.1 6 Norte 13 Este 0 1002.1 -- 81
2020-11-27 01:00:00 10.3 4 Noroeste 11 Nordeste 0 1002.3 -- 80
2020-11-27 00:00:00 9.7 7 Nordeste 9 Norte 0 1002.9 -- 83
2020-11-26 23:00:00 11.7 5 Nordeste 19 Sudeste 0 1003.1 -- 78
2020-11-26 22:00:00 10 4 Nordeste 10 Norte 0 1003.3 -- 91
2020-11-26 21:00:00 10.4 4 Nordeste 16 Sudoeste 0 1003.5 -- 88
2020-11-26 20:00:00 11.9 9 Sur 32 Sudoeste 0 1003.5 -- 83
2020-11-26 19:00:00 12.7 22 Sudoeste 42 Sudoeste 0 1003.7 -- 79
2020-11-26 18:00:00 14.1 21 Sur 36 Sur 0 1002.9 -- 66
2020-11-26 17:00:00 15.2 26 Sur 36 Sur 0 1002.4 -- 65
2020-11-26 16:00:00 14.4 24 Sur 40 Sur 0 1002.7 -- 68
2020-11-26 15:00:00 14.5 16 Sur 39 Sur 0 1002.7 -- 70
2020-11-26 14:00:00 14.7 26 Sur 48 Sur 0 1002.9 -- 69
2020-11-26 13:00:00 14.3 25 Sur 54 Sur 0 1003.7 -- 69
2020-11-26 12:00:00 14 30 Sur 42 Sur 0 1003.9 -- 69
2020-11-26 11:00:00 13.7 21 Sur 53 Sur 0 1004.4 -- 72
2020-11-26 10:00:00 13.1 26 Sur 44 Sur 0 1003.6 -- 74
2020-11-26 09:00:00 12.6 9 Sur 27 Sudeste 0 1003.4 -- 78
2020-11-26 08:00:00 12.3 6 Sudeste 36 Sudeste 0.1 1003.2 -- 82
2020-11-26 07:00:00 12.5 15 Sur 29 Sur 0.5 1002.8 -- 86
2020-11-26 06:00:00 12.7 15 Sur 29 Sur 0.5 1003.2 -- 90
2020-11-26 05:00:00 13.1 18 Sur 27 Sur 0.3 1003.1 -- 90
2020-11-26 04:00:00 13 13 Sur 21 Sur 0.1 1003.7 -- 89
2020-11-26 03:00:00 12.4 10 Sur 14 Sur 0.2 1004.6 -- 92
2020-11-26 02:00:00 12.7 7 Sur 18 Sudoeste 0.4 1005 -- 92
2020-11-26 01:00:00 13.5 13 Sudoeste 28 Sudoeste 1.2 1005.9 -- 90
2020-11-26 00:00:00 14.3 12 Sudoeste 35 Sur 0.9 1006.3 -- 96
2020-11-25 23:00:00 14.5 14 Nordeste 30 Nordeste 0 1006.1 -- 96
2020-11-25 22:00:00 13.7 14 Nordeste 27 Este 0 1006.1 -- 96
2020-11-25 21:00:00 13.8 12 Este 21 Este 3.6 1005.8 -- 96
2020-11-25 20:00:00 14.2 6 Nordeste 22 Nordeste 1.6 1006.9 -- 92
2020-11-25 19:00:00 14.1 15 Este 27 Este 0 1006.9 -- 94
2020-11-25 18:00:00 13.9 12 Este 17 Nordeste 0 1007.3 -- 94
2020-11-25 17:00:00 13.8 10 Noroeste 28 Noroeste 0.7 1007.7 -- 93
2020-11-25 16:00:00 14.3 17 Oeste 49 Oeste 4.1 1008.3 -- 96
2020-11-25 15:00:00 16.1 16 Este 28 Este 0 1007.6 -- 87
2020-11-25 14:00:00 15.8 5 Nordeste 9 Este 0 1008.7 -- 92
2020-11-25 13:00:00 15.7 5 Sudeste -- -- -- 1010.3 -- 90
2020-11-25 12:00:00 16.5 16 Sur 25 Sur 0.2 1011.6 -- 82
2020-11-25 11:00:00 17.8 10 Sur 18 Sur 0 1012.1 -- 75
2020-11-25 10:00:00 17 9 Sur 28 Sur 0 1012.1 -- 79
2020-11-25 09:00:00 16.5 17 Sur 29 Sur 0 1012.1 -- 82
2020-11-25 08:00:00 16 19 Sur 26 Sur 0 1012.1 -- 85
2020-11-25 07:00:00 16.1 10 Sur 21 Sur 0 1012.4 -- 87
2020-11-25 06:00:00 16.2 14 Sur 20 Sudoeste 0 -- -- 86
2020-11-25 05:00:00 16.1 14 Sudoeste 26 Sudoeste 0 1013.1 -- 87
2020-11-25 04:00:00 16.2 17 Sudoeste 27 Sudoeste 0 1013.6 -- 89
2020-11-25 03:00:00 16.2 16 Sudoeste 24 Sudoeste 0 1014.3 -- 90
2020-11-25 02:00:00 16 15 Sudoeste 27 Sudoeste 0 1014.9 -- 91
2020-11-25 01:00:00 16.6 17 Sudoeste 27 Sudoeste 0 1015.6 -- 88
2020-11-25 00:00:00 16.6 14 Sudoeste 24 Sudoeste 0 1015.9 -- 87
2020-11-24 23:00:00 16.6 14 Sudoeste 22 Sur 0 1016.1 -- 88
2020-11-24 22:00:00 14.6 2 Sudeste 12 Este 0 1016.3 -- 91
2020-11-24 21:00:00 15.4 8 Este 16 Este 0 1016.4 -- 86
2020-11-24 20:00:00 15.7 13 Este 24 Este 0 1016.4 -- 84
2020-11-24 19:00:00 15.6 16 Nordeste 22 Este 0 1016.4 -- 84
2020-11-24 18:00:00 16 14 Este 26 Este 0 1016.4 -- 81
2020-11-24 17:00:00 16.9 18 Este 30 Este 0 1016.3 -- 78
2020-11-24 16:00:00 17.5 19 Este 33 Este 0 1016.4 -- 75
2020-11-24 15:00:00 17.7 24 Este 35 Este 0 1016.6 -- 74
2020-11-24 14:00:00 18.1 22 Este 35 Este 0 1017.6 -- 73
2020-11-24 13:00:00 17.8 26 Nordeste 37 Este 0 1018.4 -- 74
2020-11-24 12:00:00 17.5 28 Nordeste 45 Nordeste 0 1019.4 -- 77
2020-11-24 11:00:00 16.8 28 Nordeste 45 Nordeste 0 1019.7 -- 80
2020-11-24 10:00:00 15.8 24 Nordeste 43 Este 0 1019.5 -- 85
2020-11-24 09:00:00 15.6 24 Nordeste 46 Nordeste 0 1018.9 -- 82
2020-11-24 08:00:00 15.2 25 Nordeste 47 Nordeste 0 1018.7 -- 82
2020-11-24 07:00:00 15.1 27 Nordeste 44 Nordeste 0 1018.5 -- 83
2020-11-24 06:00:00 15.3 28 Nordeste 43 Este 0 1018.4 -- 80
2020-11-24 05:00:00 15.3 28 Nordeste 44 Este 0 1018.1 -- 74
2020-11-24 04:00:00 15.3 30 Nordeste 45 Este 0 1018.9 -- 73
2020-11-24 03:00:00 15.3 26 Nordeste 48 Este 0 1019.2 -- 74
2020-11-24 02:00:00 15.5 28 Nordeste 46 Nordeste 0 1019.5 -- 73
2020-11-24 01:00:00 15.7 31 Este 51 Este 0 1019.5 -- 73
2020-11-24 00:00:00 15.7 31 Este 53 Este 0 1020.1 -- 70
2020-11-23 23:00:00 15.9 33 Este 52 Este 0 1020.2 -- 70
2020-11-23 22:00:00 15.8 38 Este 57 Este 0 1019.9 -- 70
2020-11-23 21:00:00 16 36 Este 51 Este 0 1020.2 -- 69
2020-11-23 20:00:00 16 33 Este 54 Este 0 1020.3 -- 68
2020-11-23 19:00:00 16.1 37 Este 58 Este 0 1020.1 -- 69
2020-11-23 18:00:00 16.2 29 Este 54 Este 0 1019.6 -- 70
2020-11-23 17:00:00 16.8 34 Este 54 Este 0 1019.5 -- 66
2020-11-23 16:00:00 17 37 Este 57 Este 0 1019.5 -- 69
2020-11-23 15:00:00 17.4 38 Este 57 Este 0 1019.6 -- 66
2020-11-23 14:00:00 17.6 36 Este 59 Este 0 1019.9 -- 66
2020-11-23 13:00:00 17.3 44 Este 63 Este 0 1020.5 -- 67
2020-11-23 12:00:00 17.3 43 Este 66 Este 0 1021.2 -- 63
2020-11-23 11:00:00 17 44 Este 65 Este 0 1021.2 -- 66
2020-11-23 10:00:00 16.6 43 Este 66 Este 0 1020.7 -- 69
2020-11-23 09:00:00 16.4 42 Este 61 Este 0 1020.5 -- 73
2020-11-23 08:00:00 16.3 37 Este 58 Este 0 1019.9 -- 74
2020-11-23 07:00:00 15.9 34 Este 55 Este 0 1019.6 -- 66
2020-11-23 06:00:00 15.7 30 Este 59 Este 0 1019.8 -- 67
2020-11-23 05:00:00 15.8 35 Este 56 Este 0 1019.5 -- 66
2020-11-23 04:00:00 15.8 33 Este 51 Nordeste 0 1019.9 -- 63
2020-11-23 03:00:00 15.7 29 Este 54 Este 0 1020.1 -- 65
2020-11-23 02:00:00 15.6 33 Este 56 Este 0 1020.3 -- 67
2020-11-23 01:00:00 15.7 35 Este 56 Este 0 1020.1 -- 67
2020-11-23 00:00:00 15.8 36 Este 55 Este 0 1020.2 -- 70
2020-11-22 23:00:00 16 36 Este 55 Este 0 1020.4 -- 70
2020-11-22 22:00:00 16 36 Este 59 Este 0 1020.5 -- 71
2020-11-22 21:00:00 16 37 Este 62 Este 0 1020.2 -- 70
2020-11-22 20:00:00 16.2 43 Este 67 Este 0 1019.6 -- 66
2020-11-22 19:00:00 16.2 44 Este 64 Este 0 1019.5 -- 65
2020-11-22 18:00:00 16.3 44 Este 64 Este 0 1019 -- 63
2020-11-22 17:00:00 16.7 44 Este 66 Este 0 1019 -- 60
2020-11-22 16:00:00 17 42 Este 66 Este 0 1019.3 -- 53
2020-11-22 15:00:00 17.7 42 Este 67 Este 0 1019.3 -- 51
2020-11-22 14:00:00 17.6 46 Este 71 Este 0 1019.6 -- 50
2020-11-22 13:00:00 17.7 49 Este 72 Este 0 1019.8 -- 57
2020-11-22 12:00:00 17.4 45 Este 65 Este 0 1020.2 -- 60
2020-11-22 11:00:00 17.2 45 Este 67 Este 0 1020.8 -- 59
2020-11-22 10:00:00 16.8 45 Este 67 Este 0 1020.4 -- 57
2020-11-22 09:00:00 16.2 39 Este 68 Este 0 1020.4 -- 62
2020-11-22 08:00:00 16.2 42 Este 71 Este 0 1019.8 -- 63
2020-11-22 07:00:00 16.4 46 Este 74 Este 0 1019.9 -- 63
2020-11-22 06:00:00 16.5 47 Este 74 Este 0 1019.1 -- 66
2020-11-22 05:00:00 16.6 43 Este 71 Este 0 1019.2 -- 66
2020-11-22 04:00:00 16.7 47 Este 75 Este 0 1019.2 -- 72
2020-11-22 03:00:00 16.7 47 Este 75 Este 0 1019.4 -- 73
2020-11-22 02:00:00 16.7 42 Este 75 Este 0 1019.2 -- 75
2020-11-22 01:00:00 16.8 48 Este 78 Este 0 1019.6 -- 75
2020-11-22 00:00:00 17 53 Este 76 Este 0 1019.6 -- 70
2020-11-21 23:00:00 16.8 44 Este 68 Este 0 1019.6 -- 76
2020-11-21 22:00:00 17 44 Este 71 Este 0 1019.5 -- 75
2020-11-21 21:00:00 17 42 Este 66 Este 0 1019.5 -- 82
2020-11-21 20:00:00 16.9 40 Este 68 Este 0 1019.3 -- 82
2020-11-21 19:00:00 17.2 42 Este 63 Este 0 1018.9 -- 79
2020-11-21 18:00:00 17.3 37 Este 62 Este 0 1018.5 -- 83
2020-11-21 17:00:00 18.2 35 Este 62 Este 0 1018.5 -- 81
2020-11-21 16:00:00 18.6 41 Este 62 Este 0 1018.1 -- 80
2020-11-21 15:00:00 18.7 40 Este 61 Este 0 1018.2 -- 78
2020-11-21 14:00:00 19.2 42 Este -- -- -- 1018.5 -- 77
2020-11-21 13:00:00 19.3 38 Este 57 Este 0 1019.3 -- 77
2020-11-21 12:00:00 19.1 34 Este 54 Este 0 1019.9 -- 78
2020-11-21 11:00:00 18.5 37 Este 54 Este 0 1019.8 -- 82
2020-11-21 10:00:00 18.1 38 Este 56 Este 0 1019.4 -- 84
2020-11-21 09:00:00 17.5 41 Este 58 Este 0 1018.8 -- 84
2020-11-21 08:00:00 17.1 39 Este 57 Este 0 1018.3 -- 91
2020-11-21 07:00:00 16.8 32 Este 62 Este 0 1018.1 -- 91
2020-11-21 06:00:00 16.9 38 Este 60 Este 0 1017.6 -- 89
2020-11-21 05:00:00 16.7 35 Este 60 Este 0 1017.6 -- 91
2020-11-21 04:00:00 16.7 36 Este 60 Este 0 1017.8 -- 91
2020-11-21 03:00:00 16.7 36 Este 58 Nordeste 0 1017.7 -- 92
2020-11-21 02:00:00 16.6 31 Este 57 Nordeste 0 1018.3 -- 93
2020-11-21 01:00:00 16.6 32 Nordeste 57 Nordeste 0 1018.4 -- 91
2020-11-21 00:00:00 16.8 36 Este 58 Este 0 1018.6 -- 90
2020-11-20 23:00:00 16.8 31 Este 54 Este 0 1018.6 -- 92
2020-11-20 22:00:00 16.8 34 Este 53 Este 0 1018.7 -- 89
2020-11-20 21:00:00 16.8 30 Este 51 Este 0 1018.9 -- 90
2020-11-20 20:00:00 16.9 31 Este 48 Este 0 1018.8 -- 89
2020-11-20 19:00:00 16.9 31 Este 46 Este 0 1018.7 -- 90
2020-11-20 18:00:00 17 28 Este 45 Este 0 1018.6 -- 90
2020-11-20 17:00:00 17.6 27 Este 42 Nordeste 0 1018.5 -- 87
2020-11-20 16:00:00 18.1 22 Nordeste 46 Este 0 1018.8 -- 85
2020-11-20 15:00:00 18.6 26 Este 44 Este 0 1018.7 -- 82
2020-11-20 14:00:00 18.3 23 Nordeste 45 Este 0 1019.4 -- 83
2020-11-20 13:00:00 19.4 26 Este 47 Este 0 1020.1 -- 80
2020-11-20 12:00:00 18.9 31 Este 52 Este 0 1020.7 -- 81
2020-11-20 11:00:00 18.3 36 Este 56 Este 0 1020.6 -- 83
2020-11-20 10:00:00 17.8 29 Nordeste 57 Este 0 1020.5 -- 86
2020-11-20 09:00:00 16.9 31 Este 57 Este 0 1020.2 -- 89
2020-11-20 08:00:00 16.7 30 Este 60 Este 0 1020 -- 89
2020-11-20 07:00:00 16.8 32 Este 55 Este 0 1019.7 -- 93
2020-11-20 06:00:00 16.6 38 Nordeste 63 Este 0 1018.9 -- 91
2020-11-20 05:00:00 16.6 37 Este 66 Este 0 1019.6 -- 94
2020-11-20 04:00:00 16.8 38 Este 67 Este 0 1019.8 -- 89
2020-11-20 03:00:00 16.6 32 Nordeste 54 Nordeste 0 1021 -- 93
2020-11-20 02:00:00 16.6 29 Nordeste 54 Este 0 1022 -- 89
2020-11-20 01:00:00 16.7 30 Nordeste 49 Este 0 1022.2 -- 91
2020-11-20 00:00:00 16.9 30 Nordeste 52 Nordeste 0 1022.6 -- 90
2020-11-19 23:00:00 16.8 27 Nordeste 45 Este 0 1022.5 -- 92
2020-11-19 22:00:00 16.9 27 Nordeste 54 Nordeste 0 1022.8 -- 91
2020-11-19 21:00:00 16.8 30 Nordeste 50 Nordeste 0 1022.9 -- 90
2020-11-19 20:00:00 16.8 28 Nordeste 44 Este 0 1022.9 -- 92
2020-11-19 19:00:00 16.7 24 Nordeste 50 Nordeste 0 1022.7 -- 89
2020-11-19 18:00:00 17.2 23 Nordeste 49 Este 0 1022.3 -- 92
2020-11-19 17:00:00 17.8 25 Nordeste 45 Nordeste 0 1022.1 -- 90
2020-11-19 16:00:00 18.2 22 Nordeste 62 Este 0 1022 -- 89
2020-11-19 15:00:00 19.1 47 Nordeste 69 Este 0 1021.1 -- 76
2020-11-19 14:00:00 19 40 Este 62 Este 0 1020.8 -- 80
2020-11-19 13:00:00 18.9 37 Este 64 Este 0 1021.7 -- 83
2020-11-19 12:00:00 18 31 Nordeste 59 Este 0 1022.3 -- 88
2020-11-19 11:00:00 17.9 32 Nordeste 59 Nordeste 0 1022.3 -- 88
2020-11-19 10:00:00 18 37 Nordeste 67 Este 0 1021.7 -- 90
2020-11-19 09:00:00 17 34 Nordeste 58 Este 0 1020.7 -- 92
2020-11-19 08:00:00 16.7 32 Nordeste 58 Nordeste 0 1020.1 -- 92
2020-11-19 07:00:00 17.1 33 Nordeste 60 Este 0 1019.8 -- 89
2020-11-19 06:00:00 17 31 Nordeste 56 Nordeste 0 1019.5 -- 88
2020-11-19 05:00:00 17.1 27 Nordeste 54 Nordeste 0 1019.5 -- 89
2020-11-19 04:00:00 17.4 28 Nordeste 50 Nordeste 0 1019.4 -- 87
2020-11-19 03:00:00 17.4 28 Nordeste 48 Nordeste 0 1019.9 -- 84
2020-11-19 02:00:00 17.7 25 Nordeste 44 Nordeste 0 1020 -- 83
2020-11-19 01:00:00 17.5 24 Nordeste 49 Este 0 1020.5 -- 83
2020-11-19 00:00:00 17.2 36 Este 57 Este 0 1020.4 -- 85
2020-11-18 23:00:00 17.4 34 Este 55 Este 0 1020.5 -- 86
2020-11-18 22:00:00 17.6 39 Este 57 Este 0 1019.8 -- 82
2020-11-18 21:00:00 17.5 35 Este 52 Este 0 1019.9 -- 83
2020-11-18 20:00:00 17.2 25 Este 48 Este 0 1020 -- 86
2020-11-18 19:00:00 17.6 32 Este 56 Este 0 1020 -- 86
2020-11-18 18:00:00 17.4 37 Este 54 Este 0 1019.4 -- 90
2020-11-18 17:00:00 17.7 34 Este 56 Este 0 1019.5 -- 92
2020-11-18 16:00:00 18.3 35 Este 54 Este 0 1019.5 -- 91
2020-11-18 15:00:00 18.8 35 Nordeste 53 Este 0 1019.7 -- 85
2020-11-18 14:00:00 18.7 28 Nordeste 50 Este 0 1020.6 -- 87
2020-11-18 13:00:00 18.8 30 Este 49 Nordeste 0 1021 -- 80
2020-11-18 12:00:00 18.5 26 Este 52 Este 0 1021.7 -- 84
2020-11-18 11:00:00 18.5 23 Nordeste 42 Este 0 1021.7 -- 83
2020-11-18 10:00:00 18.2 23 Nordeste 39 Nordeste 0 1021.8 -- 82
2020-11-18 09:00:00 17.6 23 Este 44 Este 0 1021.6 -- 88
2020-11-18 08:00:00 17.3 26 Nordeste 44 Nordeste 0 1021.1 -- 88
2020-11-18 07:00:00 17 30 Nordeste 44 Este 0 1020.5 -- 88
2020-11-18 06:00:00 16.8 27 Nordeste 49 Este 0 1020.3 -- 90
2020-11-18 05:00:00 16.7 28 Nordeste 51 Nordeste 0 1019.9 -- 91
2020-11-18 04:00:00 16.7 29 Este 48 Este 0 1020 -- 93
2020-11-18 03:00:00 16.7 30 Nordeste 49 Nordeste 0 1020 -- 93
2020-11-18 02:00:00 16.7 30 Este 50 Este 0 1020.7 -- 92
2020-11-18 01:00:00 16.7 27 Nordeste 46 Este 0 1021 -- 92
2020-11-18 00:00:00 16.9 25 Nordeste 40 Este 0 1021.1 -- 92
2020-11-17 23:00:00 17.1 24 Nordeste 41 Nordeste 0 1021.3 -- 91
2020-11-17 22:00:00 17.2 24 Nordeste 44 Nordeste 0 1021.4 -- 92
2020-11-17 21:00:00 17.1 27 Este 42 Este 0 1021.2 -- 92
2020-11-17 20:00:00 16.9 26 Este 41 Nordeste 0 1021 -- 95
2020-11-17 19:00:00 17.1 26 Este 40 Este 0 1020.6 -- 94
2020-11-17 18:00:00 17.6 24 Este 39 Este 0 1020.5 -- 94
2020-11-17 17:00:00 18.5 26 Este 37 Este 0 1020.5 -- 90
2020-11-17 16:00:00 19.5 24 Este 45 Este 0 1020.5 -- 86
2020-11-17 15:00:00 19.7 28 Este 46 Este 0 1020.5 -- 86
2020-11-17 14:00:00 19.6 32 Este 45 Este 0 1020.7 -- 85
2020-11-17 13:00:00 19.8 30 Este 45 Este 0 1021.1 -- 86
2020-11-17 12:00:00 19.7 26 Este 43 Este 0 1021.5 -- 87
2020-11-17 11:00:00 19.3 27 Este 46 Este 0 1021.5 -- 88
2020-11-17 10:00:00 19.1 25 Este 38 Este 0 1021 -- 86
2020-11-17 09:00:00 17.1 20 Este 33 Este 0 1020.7 -- 97
2020-11-17 08:00:00 14.5 6 Este 12 Este 0 1020.4 -- 99
2020-11-17 07:00:00 14.6 7 Este 14 Este 0 1020.1 -- 99
2020-11-17 06:00:00 12.6 2 Este 6 Norte 0 1019.6 -- 99
2020-11-17 05:00:00 13.6 4 Norte 8 Noroeste 0 1019.4 -- 99
2020-11-17 04:00:00 14 4 Noroeste 8 Noroeste 0 1019.5 -- 99
2020-11-17 03:00:00 14.3 4 Noroeste 13 Noroeste 0 1019.7 -- 99
2020-11-17 02:00:00 14.5 7 Noroeste 13 Noroeste 0 1019.5 -- 99
2020-11-17 01:00:00 14.6 6 Noroeste 14 Noroeste 0 1019.8 -- 99
2020-11-17 00:00:00 15.7 8 Noroeste 14 Oeste 0 1020.1 -- 99
2020-11-16 23:00:00 16.1 9 Oeste 17 Oeste 0 1020.4 -- 99
2020-11-16 22:00:00 16.4 12 Oeste 18 Oeste 0 1020.1 -- 99
2020-11-16 21:00:00 17.3 9 Oeste 13 Noroeste 0 1019.8 -- 90
2020-11-16 20:00:00 17.9 9 Noroeste 15 Noroeste 0 1019.2 -- 95
2020-11-16 19:00:00 18.4 10 Noroeste 20 Oeste 0 1019 -- 95
2020-11-16 18:00:00 18.7 11 Oeste 18 Oeste 0 1018.6 -- 93
2020-11-16 17:00:00 19.2 8 Noroeste 22 Oeste 0 1018.5 -- 92
2020-11-16 16:00:00 20.2 12 Oeste 25 Oeste 0 1018.3 -- 87
2020-11-16 15:00:00 20 16 Oeste 25 Noroeste 0 1018.5 -- 87
2020-11-16 14:00:00 20.6 12 Oeste 24 Oeste 0 1018.7 -- 87
2020-11-16 13:00:00 19.5 14 Oeste 23 Oeste 0 1019.5 -- 92
2020-11-16 12:00:00 19.3 18 Oeste 24 Oeste 0 1019.8 -- 95
2020-11-16 11:00:00 19.5 12 Oeste 21 Oeste 0 1019.6 -- 90
2020-11-16 10:00:00 19.2 12 Oeste 17 Noroeste 0 1019.2 -- 85
2020-11-16 09:00:00 18.2 10 Noroeste 15 Noroeste 0 1018.7 -- 77
2020-11-16 08:00:00 17.5 11 Noroeste 15 Noroeste 0 1018 -- 78
2020-11-16 07:00:00 18.1 10 Noroeste 14 Noroeste 0 1017.7 -- 74
2020-11-16 06:00:00 15.1 4 Norte 8 Nordeste 0 1017.5 -- 89
2020-11-16 05:00:00 14.9 2 Nordeste 10 Este 0 1017.2 -- 89
2020-11-16 04:00:00 15.3 5 Norte 22 Este 0 1017.5 -- 96
2020-11-16 03:00:00 15.9 14 Este 22 Este 0 1017.8 -- 99
2020-11-16 02:00:00 15.5 9 Este 35 Este 0 1018 -- 99
2020-11-16 01:00:00 16.1 20 Este 32 Este 0 1018 -- 99
2020-11-16 00:00:00 16.2 20 Este 37 Este 0 1018.3 -- 99
2020-11-15 23:00:00 16.6 24 Este 36 Este 0 1018.1 -- 98
2020-11-15 22:00:00 16.9 22 Este 35 Este 0 1018.1 -- 94
2020-11-15 21:00:00 18.7 23 Este 35 Este 0 1017.9 -- 74
2020-11-15 20:00:00 19.6 25 Este 37 Nordeste 0 1017.3 -- 68
2020-11-15 19:00:00 19.5 22 Nordeste 35 Nordeste 0 1017 -- 69
2020-11-15 18:00:00 20.1 21 Nordeste 37 Este 0 1016.7 -- 68
2020-11-15 17:00:00 21.3 23 Este 36 Nordeste 0 1016.5 -- 66
2020-11-15 16:00:00 22.2 24 Este 37 Este 0 1016.3 -- 62
2020-11-15 15:00:00 22.1 26 Este 41 Nordeste 0 1016.1 -- 64
2020-11-15 14:00:00 22.4 25 Este 41 Este 0 1016.4 -- 64
2020-11-15 13:00:00 21.1 24 Este 39 Este 0 1017 -- 69
2020-11-15 12:00:00 20.7 25 Este 37 Este 0 1017.4 -- 77
2020-11-15 11:00:00 19.1 24 Este 35 Este 0 1017.5 -- 85
2020-11-15 10:00:00 17.4 22 Este 34 Este 0 1017.6 -- 92
2020-11-15 09:00:00 17.4 20 Este 32 Este 0 1017.4 -- 91
2020-11-15 08:00:00 17.5 19 Este 29 Este 0 1016.8 -- 87
2020-11-15 07:00:00 18.2 15 Nordeste 24 Este 0 1016.5 -- 79
2020-11-15 06:00:00 18.3 16 Este 25 Este 0 1016 -- 78
2020-11-15 05:00:00 18.1 16 Este 24 Este 0 1016 -- 81
2020-11-15 04:00:00 18.3 14 Este 21 Este 0 1016.3 -- 80
2020-11-15 03:00:00 18.2 13 Este 18 Este 0 1016.8 -- 81
2020-11-15 02:00:00 16.8 6 Nordeste 15 Nordeste 0 1017.2 -- 89
2020-11-15 01:00:00 17.6 9 Nordeste 17 Nordeste 0 1017.3 -- 87
2020-11-15 00:00:00 17.7 13 Este 20 Este 0 1017.6 -- 89
2020-11-14 23:00:00 17.2 9 Nordeste 18 Este 0 1017.7 -- 92
2020-11-14 22:00:00 17 13 Este 17 Este 0 1017.8 -- 94
2020-11-14 21:00:00 17.2 7 Este 11 Este 0 1017.6 -- 94
2020-11-14 20:00:00 16.9 4 Este 8 Norte 0 1017.5 -- 87
2020-11-14 19:00:00 17.7 7 Norte 12 Norte 0 1016.8 -- 85
2020-11-14 18:00:00 19.1 7 Norte 10 Noroeste 0 1016.6 -- 78
2020-11-14 17:00:00 20 6 Noroeste 9 Noroeste 0 1016.5 -- 74
2020-11-14 16:00:00 20.4 3 Sudoeste 7 Sudoeste 0 1016.2 -- 74
2020-11-14 15:00:00 19.9 5 Sur 8 Sur 0 1016.1 -- 81
2020-11-14 14:00:00 18.9 4 Sudoeste 8 Noroeste 0 1016.9 -- 83
2020-11-14 13:00:00 18.4 3 Oeste 9 Oeste 0.1 1017.4 -- 86
2020-11-14 12:00:00 17.9 2 Sudeste 9 Sur 0 1017.7 -- 92
2020-11-14 11:00:00 16.9 7 Sur 15 Sur 0.2 1017.7 -- 97
2020-11-14 10:00:00 17.1 5 Este 13 Noroeste 1.1 1017.4 -- 97
2020-11-14 09:00:00 17 6 Este 21 Este 0.9 1017.1 -- 97
2020-11-14 08:00:00 17.2 16 Este 23 Este 0 1016 -- 97
2020-11-14 07:00:00 17.1 13 Nordeste 23 Este 0 1015.4 -- 97
2020-11-14 06:00:00 17.1 11 Nordeste 20 Nordeste 0 1015.1 -- 95
2020-11-14 05:00:00 17.3 13 Nordeste 19 Nordeste 0 1014.9 -- 94
2020-11-14 04:00:00 17.7 12 Nordeste 21 Nordeste 0 1015.3 -- 93
2020-11-14 03:00:00 17.7 13 Nordeste 22 Nordeste 0 1015.5 -- 94
2020-11-14 02:00:00 17.7 13 Nordeste 21 Nordeste 0 1015.8 -- 94
2020-11-14 01:00:00 17.6 14 Nordeste 26 Este 0 1016 -- 94
2020-11-14 00:00:00 17.7 19 Nordeste 30 Este 0 1016.1 -- 94
2020-11-13 23:00:00 17.7 20 Nordeste 30 Este 0 1016.1 -- 94
2020-11-13 22:00:00 17.6 17 Nordeste 27 Nordeste 0 1015.8 -- 94
2020-11-13 21:00:00 17.8 19 Este 28 Este 0 1015.9 -- 94
2020-11-13 20:00:00 17.7 18 Nordeste 31 Este 0 1015.4 -- 93
2020-11-13 19:00:00 17.6 19 Este 31 Este 0 1015.2 -- 94
2020-11-13 18:00:00 17.7 22 Este 36 Este 0 1014.7 -- 95
2020-11-13 17:00:00 18.3 20 Este 35 Este 0 1014.5 -- 91
2020-11-13 16:00:00 18.4 22 Este 36 Este 0 1014.4 -- 91
2020-11-13 15:00:00 18.5 24 Este 36 Este 0 1014.8 -- 92
2020-11-13 14:00:00 18.8 22 Este 35 Este 0 1015 -- 90
2020-11-13 13:00:00 19.1 23 Este 36 Este 0 1015.6 -- 89
2020-11-13 12:00:00 19.2 24 Nordeste 41 Nordeste 0 1015.9 -- 89
2020-11-13 11:00:00 18.3 24 Este 37 Este 0 1016 -- 91
2020-11-13 10:00:00 17.8 23 Este 36 Este 0 1015.5 -- 94
2020-11-13 09:00:00 17.2 23 Nordeste 35 Este 0 1014.9 -- 96
2020-11-13 08:00:00 16.8 21 Este 35 Nordeste 0 1014.3 -- 97
2020-11-13 07:00:00 17 22 Nordeste 37 Nordeste 0 1014 -- 95
2020-11-13 06:00:00 17 22 Nordeste 38 Este 0 1013.7 -- 95
2020-11-13 05:00:00 17.1 23 Nordeste 37 Nordeste 0 1013.6 -- 95
2020-11-13 04:00:00 17 23 Nordeste 39 Este 0 1013.8 -- 95
2020-11-13 03:00:00 17.2 27 Nordeste 40 Este 0 1014 -- 95
2020-11-13 02:00:00 16.9 27 Nordeste 42 Este 0 1014 -- 96
2020-11-13 01:00:00 17.2 26 Nordeste 44 Nordeste 0 1014.4 -- 94
2020-11-13 00:00:00 17.1 28 Este 47 Este 0 1014.3 -- 94
2020-11-12 23:00:00 17.2 28 Nordeste 43 Este 0 1014.5 -- 95
2020-11-12 22:00:00 17 28 Nordeste 45 Este 0 1014.1 -- 95
2020-11-12 21:00:00 17.1 31 Nordeste 49 Nordeste 0 1013.7 -- 93
2020-11-12 20:00:00 17 29 Nordeste 46 Este 0 1013.6 -- 93
2020-11-12 19:00:00 17 32 Nordeste 55 Este 0 1013 -- 92
2020-11-12 18:00:00 17.1 29 Nordeste 53 Nordeste 0 1012.8 -- 92
2020-11-12 17:00:00 17.6 33 Nordeste 55 Nordeste 0 1012.8 -- 90
2020-11-12 16:00:00 18 32 Nordeste 55 Este 0 1012.7 -- 87
2020-11-12 15:00:00 18.9 37 Nordeste 55 Este 0 1012.5 -- 82
2020-11-12 14:00:00 18.8 36 Este 59 Este 0 1013.4 -- 83
2020-11-12 13:00:00 19.1 31 Nordeste 56 Este 0 1013.8 -- 82
2020-11-12 12:00:00 17.9 37 Nordeste 59 Nordeste 0 1014.6 -- 90
2020-11-12 11:00:00 18.2 32 Nordeste 60 Este 0 1014.7 -- 87
2020-11-12 10:00:00 18.1 26 Nordeste 47 Nordeste 0 1015.3 -- 89
2020-11-12 09:00:00 17.5 27 Nordeste 47 Nordeste 0 1015.4 -- 91
2020-11-12 08:00:00 17.1 30 Nordeste 54 Este 0 1014.6 -- 92
2020-11-12 07:00:00 16.8 29 Nordeste 50 Este 0 1014.2 -- 92
2020-11-12 06:00:00 16.9 28 Nordeste 50 Nordeste 0 1014.7 -- 92
2020-11-12 05:00:00 17.1 31 Nordeste 53 Este 0 1014.5 -- 92
2020-11-12 04:00:00 17.1 28 Nordeste 48 Nordeste 0 1014.5 -- 92
2020-11-12 03:00:00 16.9 31 Nordeste 51 Nordeste 0 1014.9 -- 92
2020-11-12 02:00:00 16.9 31 Nordeste 52 Nordeste 0 1015.7 -- 92
2020-11-12 01:00:00 16.9 26 Nordeste 53 Nordeste 0 1016.3 -- 93
2020-11-12 00:00:00 17.1 27 Nordeste 51 Nordeste 0 1016.8 -- 93
2020-11-11 23:00:00 16.9 28 Nordeste 51 Este 0 1016.5 -- 95
2020-11-11 22:00:00 17 30 Nordeste 50 Este 0 1016.7 -- 93
2020-11-11 21:00:00 17.3 28 Nordeste 44 Nordeste 0 1016.2 -- 94
2020-11-11 20:00:00 17.1 27 Nordeste 51 Este 0 1015.9 -- 96
2020-11-11 19:00:00 17.2 30 Nordeste 51 Nordeste 0 1015.8 -- 93
2020-11-11 18:00:00 17.3 30 Nordeste 56 Este 0 1015.5 -- 91
2020-11-11 17:00:00 17.8 31 Nordeste 56 Nordeste 0 1015.2 -- 89
2020-11-11 16:00:00 18.6 35 Nordeste 61 Este 0 1015.1 -- 83
2020-11-11 15:00:00 19.2 36 Nordeste 60 Este 0 1014.6 -- 80
2020-11-11 14:00:00 19.2 37 Nordeste 63 Este 0 1015.6 -- 81
2020-11-11 13:00:00 18 35 Nordeste 59 Este 0 1016.5 -- 88
2020-11-11 12:00:00 18.5 35 Nordeste 62 Nordeste 0 1017.1 -- 86
2020-11-11 11:00:00 18 32 Nordeste 56 Este 0 1017.9 -- 88
2020-11-11 10:00:00 17.4 29 Nordeste 57 Nordeste 0 1017.4 -- 91
2020-11-11 09:00:00 18.2 40 Este 57 Este 0 1017 -- 86
2020-11-11 08:00:00 17.1 34 Este 53 Este 0 1017.1 -- 91
2020-11-11 07:00:00 16.7 29 Nordeste 49 Este 0 1016.9 -- 93
2020-11-11 06:00:00 16.7 28 Nordeste 50 Nordeste 0 1017.3 -- 91
2020-11-11 05:00:00 16.8 26 Nordeste 46 Este 0 1017.5 -- 88
2020-11-11 04:00:00 16.8 26 Nordeste 49 Nordeste 0 1017.8 -- 90
2020-11-11 03:00:00 16.8 26 Nordeste 46 Este 0 1018.3 -- 89
2020-11-11 02:00:00 16.9 28 Nordeste 55 Este 0 1018.3 -- 92
2020-11-11 01:00:00 17 29 Nordeste 48 Nordeste 0 1018.2 -- 90
2020-11-11 00:00:00 17.1 29 Nordeste 49 Nordeste 0 1018.7 -- 92
2020-11-10 23:00:00 16.9 27 Nordeste 42 Nordeste 0 1018.9 -- 94
2020-11-10 22:00:00 17.5 23 Este 35 Este 0 1019 -- 94
2020-11-10 21:00:00 16.7 19 Nordeste 36 Nordeste 0 1018.5 -- 94
2020-11-10 20:00:00 16.6 18 Nordeste 31 Este 0 1018.7 -- 91
2020-11-10 19:00:00 16.7 22 Nordeste 37 Este 0 1018.5 -- 92
2020-11-10 18:00:00 17 22 Este 33 Este 0 1017.9 -- 90
2020-11-10 17:00:00 18.4 20 Este 35 Este 0 1018 -- 85
2020-11-10 16:00:00 19 20 Este 37 Este 0 1017.8 -- 79
2020-11-10 15:00:00 19.4 26 Este 39 Este 0 1017.8 -- 76
2020-11-10 14:00:00 19.3 24 Este 38 Este 0 1018.2 -- 76
2020-11-10 13:00:00 19.6 23 Este 35 Este 0 1018.8 -- 66
2020-11-10 12:00:00 19.8 20 Este 30 Este 0 1019.3 -- 64
2020-11-10 11:00:00 18.1 9 Este 15 Este 0 1019.6 -- 80
2020-11-10 10:00:00 16.9 3 Sur 7 Nordeste 0 1019.7 -- 89
2020-11-10 09:00:00 14 5 Nordeste 9 Norte 0 1019.5 -- 98
2020-11-10 08:00:00 13.7 3 Nordeste 14 Sudeste 0 1018.7 -- 96
2020-11-10 07:00:00 15.1 6 Sur 15 Este 0 1018.1 -- 96
2020-11-10 06:00:00 14.7 10 Este 15 Este 0 1017.9 -- 94
2020-11-10 05:00:00 12.3 8 Este 11 Este 0 1017.7 -- 99
2020-11-10 04:00:00 11.4 7 Nordeste 14 Norte 0 1017.9 -- 92
2020-11-10 03:00:00 14 12 Norte 21 Norte 0 1018.1 -- 84
2020-11-10 02:00:00 14.9 15 Norte 24 Norte 0 1017.9 -- 84
2020-11-10 01:00:00 14.6 15 Norte 23 Norte 0 1018.2 -- 87
2020-11-10 00:00:00 15.4 15 Norte 24 Norte 0 1018.7 -- 86
2020-11-09 23:00:00 15.8 15 Norte 23 Noroeste 0 1018.8 -- 89
2020-11-09 22:00:00 15.9 14 Norte 19 Noroeste 0 1018.8 -- 90
2020-11-09 21:00:00 16.4 7 Noroeste 13 Noroeste 0 1018.8 -- 89
2020-11-09 20:00:00 16.5 7 Noroeste 16 Noroeste 0 1018.9 -- 92
2020-11-09 19:00:00 17.2 9 Oeste 19 Oeste 0 1018.6 -- 90
2020-11-09 18:00:00 18 10 Oeste 21 Oeste 0 1018.2 -- 90
2020-11-09 17:00:00 18.2 10 Oeste 22 Oeste 0 1017.8 -- 87
2020-11-09 16:00:00 18.6 13 Oeste 21 Oeste 0 1017.7 -- 85
2020-11-09 15:00:00 18.6 13 Oeste 22 Oeste 0 1017.8 -- 87
2020-11-09 14:00:00 18.7 13 Oeste 21 Oeste 0 1018 -- 88
2020-11-09 13:00:00 18 11 Oeste 18 Oeste 0 1018.6 -- 93
2020-11-09 12:00:00 17.5 6 Noroeste 11 Oeste 0 1019.2 -- 95
2020-11-09 11:00:00 16.9 4 Sur 8 Sur 0 1019.3 -- 98
2020-11-09 10:00:00 16.6 5 Oeste 10 Oeste 0.3 1019.2 -- 97
2020-11-09 09:00:00 15.4 3 Este 8 Este 0 1018.5 -- 99
2020-11-09 08:00:00 13.7 3 Nordeste 9 Norte 0 1017.7 -- 99
2020-11-09 07:00:00 14.3 5 Nordeste 8 Nordeste 0 1017.2 -- 98
2020-11-09 06:00:00 14.7 4 Nordeste 12 Este 0 1017.1 -- 97
2020-11-09 05:00:00 15.6 9 Este 13 Nordeste 0 1016.7 -- 96
2020-11-09 04:00:00 15.9 10 Este 15 Este 0 1016.7 -- 95
2020-11-09 03:00:00 16.1 3 Nordeste 14 Este 0 1016.9 -- 94
2020-11-09 02:00:00 16.3 6 Nordeste 15 Nordeste 0 1017 -- 93
2020-11-09 01:00:00 16.6 10 Nordeste 21 Este 0 1017.1 -- 93
2020-11-09 00:00:00 16.7 5 Nordeste 24 Este 0 1017.3 -- 91
2020-11-08 23:00:00 17.1 14 Este 21 Este 0 1017.4 -- 90
2020-11-08 22:00:00 17.1 13 Nordeste 22 Nordeste 0 1017.1 -- 91
2020-11-08 21:00:00 16.8 13 Nordeste 23 Nordeste 0 1017 -- 91
2020-11-08 20:00:00 17.1 15 Nordeste 23 Este 0 1017 -- 87
2020-11-08 19:00:00 17.2 13 Nordeste 23 Nordeste 0 1016.7 -- 84
2020-11-08 18:00:00 18.2 16 Este 26 Nordeste 0 1016.5 -- 82
2020-11-08 17:00:00 19.1 19 Este 28 Este 0 1016.2 -- 78
2020-11-08 16:00:00 -- 18 Este 29 Este 0 -- -- --
2020-11-08 15:00:00 20.4 20 Este 31 Este 0 1016.4 -- 72
2020-11-08 14:00:00 20.1 22 Este 33 Este 0 1016.5 -- 74
2020-11-08 13:00:00 20 22 Este 33 Este 0 1017.1 -- 74
2020-11-08 12:00:00 20 22 Este 36 Este 0 1017.8 -- 73
2020-11-08 11:00:00 19.3 21 Este 33 Este 0 1017.9 -- 78
2020-11-08 10:00:00 18.1 21 Este 31 Este 0 1018 -- 80
2020-11-08 09:00:00 17.8 15 Este 26 Este 0 1018.1 -- 81
2020-11-08 08:00:00 16.6 14 Nordeste 22 Este 0 1017.6 -- 85
2020-11-08 07:00:00 16.7 15 Nordeste 23 Este 0 1017.5 -- 83
2020-11-08 06:00:00 16.7 15 Nordeste 22 Este 0 1017.2 -- 85
2020-11-08 05:00:00 16.6 14 Nordeste 23 Nordeste 0 1017.3 -- 87
2020-11-08 04:00:00 16.7 14 Nordeste 24 Este 0 1017.4 -- 88
2020-11-08 03:00:00 16.9 15 Nordeste 28 Este 0 1017.7 -- 89
2020-11-08 02:00:00 16.9 13 Este 22 Este 0 1017.8 -- 90
2020-11-08 01:00:00 16.5 8 Nordeste 21 Este 0 1018.1 -- 91
2020-11-08 00:00:00 16.4 9 Este 18 Este 0 1018.5 -- 94
2020-11-07 23:00:00 15.1 7 Este 9 Este 0 1018.9 -- 96
2020-11-07 22:00:00 14.2 4 Nordeste 7 Norte 0 1018.8 -- 93
2020-11-07 21:00:00 15 7 Norte 9 Noroeste 0 1018.3 -- 90
2020-11-07 20:00:00 15.9 7 Norte 10 Norte 0 1018.1 -- 87
2020-11-07 19:00:00 17.2 8 Norte 15 Noroeste 0 1017.8 -- 88
2020-11-07 18:00:00 18.7 9 Noroeste 21 Oeste 0 1017.4 -- 86
2020-11-07 17:00:00 19.7 13 Oeste 23 Sudoeste 0 1017.3 -- 82
2020-11-07 16:00:00 20.5 15 Oeste 28 Oeste 0 1017.5 -- 77
2020-11-07 15:00:00 20.2 18 Oeste 26 Oeste 0 1017.3 -- 78
2020-11-07 14:00:00 20.7 13 Oeste 24 Sudoeste 0 1017.2 -- 75
2020-11-07 13:00:00 21 14 Sudoeste 27 Sudoeste 0 1017.6 -- 74
2020-11-07 12:00:00 20.2 15 Sudoeste 31 Sudoeste 0 1017.6 -- 81
2020-11-07 11:00:00 18.5 20 Sudoeste 36 Sudoeste 0 1017.1 -- 87
2020-11-07 10:00:00 18.4 20 Sudoeste 32 Sudoeste 0 1016.3 -- 86
2020-11-07 09:00:00 18.3 16 Sudoeste 40 Sudoeste 0 1015.6 -- 87
2020-11-07 08:00:00 18.4 27 Oeste 47 Sudoeste 0 1014.1 -- 78
2020-11-07 07:00:00 17.9 23 Sudoeste 40 Sudoeste 0 1012.9 -- 83
2020-11-07 06:00:00 17.1 22 Sudoeste 41 Sudoeste 0 1012 -- 92
2020-11-07 05:00:00 17.1 21 Sudoeste 36 Sudoeste 0 1011.3 -- 89
2020-11-07 04:00:00 17 19 Sudoeste 38 Sudoeste 0.9 1010.9 -- 90
2020-11-07 03:00:00 18.3 20 Sudoeste 45 Sur 0.1 1010.6 -- 82
2020-11-07 02:00:00 19.5 22 Sur 41 Sudoeste 0 1010 -- 71
2020-11-07 01:00:00 19.7 19 Sur 28 Sur 0 1009.8 -- 68
2020-11-07 00:00:00 19.3 11 Sur 28 Sur 0 1009.9 -- 70
2020-11-06 23:00:00 19.1 16 Sudeste 32 Sudeste 0 1009.5 -- 71
2020-11-06 22:00:00 19 13 Sudeste 26 Sudeste 0.1 1008.7 -- 70
2020-11-06 21:00:00 17.9 7 Este 15 Sudeste 0.1 1008.8 -- 86
2020-11-06 20:00:00 19 7 Sudoeste 14 Sudoeste 0 1009.7 -- 84
2020-11-06 19:00:00 19.2 10 Oeste 18 Noroeste 0 1008.5 -- 82
2020-11-06 18:00:00 18.9 11 Noroeste 22 Noroeste 0 1006.9 -- 89
2020-11-06 17:00:00 21.3 10 Oeste 16 Oeste 0 1007.8 -- 71
2020-11-06 16:00:00 21.6 3 Este 18 Sudeste 0 1007.1 -- 72
2020-11-06 15:00:00 22.2 12 Este 19 Este 0 1006.8 -- 69
2020-11-06 14:00:00 22.4 14 Este 27 Este 0 1006.8 -- 69
2020-11-06 13:00:00 22 13 Nordeste 37 Nordeste 0 1006.5 -- 68
2020-11-06 12:00:00 22.1 22 Nordeste 49 Este 0 1006.6 -- 71
2020-11-06 11:00:00 21.4 28 Nordeste 57 Nordeste 0 1005.7 1.2 73
2020-11-06 10:00:00 20.6 35 Nordeste 54 Este 0 1005.6 -- 76
2020-11-06 09:00:00 19.9 36 Nordeste 60 Nordeste 0 1004.8 -- 78
2020-11-06 08:00:00 19.4 39 Nordeste 59 Este 0 1004.5 -- 81
2020-11-06 07:00:00 19.6 36 Nordeste 57 Este 0 1004.5 -- 78
2020-11-06 06:00:00 19.2 30 Nordeste 54 Nordeste 0 1005.6 -- 81
2020-11-06 05:00:00 19.3 33 Este 56 Nordeste 0 1005.6 -- 76
2020-11-06 04:00:00 19.4 31 Nordeste 54 Este 0 1005.5 -- 74
2020-11-06 03:00:00 19.2 26 Este 44 Este 0 1006.3 -- 74
2020-11-06 02:00:00 19.2 21 Nordeste 36 Este 0 1007.3 -- 76
2020-11-06 01:00:00 18.7 21 Nordeste 42 Este 0 1008 -- 82
2020-11-06 00:00:00 19.1 21 Nordeste 43 Nordeste 0 1008.7 -- 81
2020-11-05 23:00:00 18.7 26 Nordeste 48 Nordeste 0 1008.5 -- 83
2020-11-05 22:00:00 19.3 30 Nordeste 51 Nordeste 0 1008.2 -- 79
2020-11-05 21:00:00 19.1 28 Nordeste 49 Este 0 1007.6 -- 80
2020-11-05 20:00:00 18.6 30 Nordeste 50 Nordeste 0 1007.6 -- 83
2020-11-05 19:00:00 18 28 Nordeste 51 Este 0 1007 -- 94
2020-11-05 18:00:00 18.4 31 Nordeste 50 Este 0 1006.8 -- 92
2020-11-05 17:00:00 19 30 Nordeste 52 Este 0 1006 -- 92
2020-11-05 16:00:00 19.9 28 Este 46 Este 0 1005.7 -- 89
2020-11-05 15:00:00 20.5 27 Nordeste 44 Este 0 1005.8 -- 84
2020-11-05 14:00:00 20.9 22 Nordeste 42 Este 0 1006.2 -- 81
2020-11-05 13:00:00 20.6 23 Nordeste 40 Este 0 1006.9 -- 77
2020-11-05 12:00:00 20.4 24 Este 35 Este 0 1007.5 -- 67
2020-11-05 11:00:00 19.2 16 Sudeste 29 Sudeste 0 1008.3 -- 65
2020-11-05 10:00:00 18.4 16 Sudeste 28 Este 0 1008.8 -- 67
2020-11-05 09:00:00 17.7 11 Sudeste 30 Sudeste 0 1008.2 -- 70
2020-11-05 08:00:00 17.7 17 Sur 30 Sur 0 1007.4 -- 72
2020-11-05 07:00:00 17.7 4 Sudeste 18 Este 0 1007.4 -- 74
2020-11-05 06:00:00 17.4 5 Sudeste 22 Sudeste 0 1006.9 -- 70
2020-11-05 05:00:00 16.7 6 Sur 32 Sur 0 1006.4 -- 76
2020-11-05 04:00:00 16.7 11 Sudeste 35 Sudeste 0 1006.3 -- 81
2020-11-05 03:00:00 16.9 19 Sudeste 35 Sudeste 0.2 1005.8 -- 89
2020-11-05 02:00:00 16.6 14 Sudeste 32 Este 0.4 1005.7 -- 91
2020-11-05 01:00:00 15.7 18 Este 25 Este 0.7 1005.5 -- 92
2020-11-05 00:00:00 16 14 Sur 44 Sudeste 0.7 1006.6 -- 90
2020-11-04 23:00:00 16.8 22 Sudeste 44 Sudeste 0 1006.5 -- 89
2020-11-04 22:00:00 16.8 28 Este 45 Este 0 1006.7 -- 90
2020-11-04 21:00:00 16.9 28 Este 45 Este 0 1006.9 -- 87
2020-11-04 20:00:00 16.8 27 Este 41 Este 0 1007.4 -- 90
2020-11-04 19:00:00 16.9 24 Este 41 Este 0 1007.7 -- 90
2020-11-04 18:00:00 16.8 25 Nordeste 38 Nordeste 0 1007.3 -- 92
2020-11-04 17:00:00 17 20 Nordeste 32 Nordeste 0 1008 -- 87
2020-11-04 16:00:00 17.3 21 Este 37 Este 0 1008.7 -- 84
2020-11-04 15:00:00 17.9 21 Este 32 Este 0 1009 -- 85
2020-11-04 14:00:00 16.9 18 Nordeste 28 Nordeste 0 1010.1 -- 89
2020-11-04 13:00:00 16.7 15 Nordeste 33 Este 0 1011.6 -- 89
2020-11-04 12:00:00 17.4 22 Nordeste 39 Nordeste 0 1012 -- 83
2020-11-04 11:00:00 17.5 23 Nordeste 40 Este 0 1012.4 -0.9 82
2020-11-04 10:00:00 17.7 24 Este 38 Nordeste 0 1012.4 -- 81
2020-11-04 09:00:00 16.6 16 Nordeste 29 Nordeste 0 1012.8 -- 81
2020-11-04 08:00:00 16.1 17 Nordeste 30 Nordeste 0 1013.3 -- 84
2020-11-04 07:00:00 -- 16 Nordeste 35 Este 0 -- -- --
2020-11-04 06:00:00 16.4 21 Nordeste 36 Este 0 1014.1 -- 86
2020-11-04 05:00:00 16.4 15 Nordeste 36 Este 0 1014.2 -- 84
2020-11-04 04:00:00 16.6 18 Nordeste 38 Nordeste 0 1014.9 -- 82
2020-11-04 03:00:00 16.2 20 Nordeste 39 Nordeste 0 1015.2 -- 86
2020-11-04 02:00:00 16.4 23 Nordeste 37 Nordeste 0 1015.8 -- 87
2020-11-04 01:00:00 16.4 18 Nordeste 36 Este 0 1016.4 -- 91
2020-11-04 00:00:00 16.4 22 Nordeste 33 Este 0 1016.7 -- 91
2020-11-03 23:00:00 16.5 25 Este 38 Este 0 1017 -- 91
2020-11-03 22:00:00 16.4 19 Nordeste 33 Este 0 1017.2 -- 93
2020-11-03 21:00:00 16.5 18 Nordeste 30 Este 0 1017.1 -- 93
2020-11-03 20:00:00 16.4 10 Nordeste 21 Este 0 1017.3 -- 92
2020-11-03 19:00:00 16.4 8 Nordeste 22 Nordeste 0 1017 -- 90
2020-11-03 18:00:00 17.1 15 Nordeste 22 Este 0 1016.9 -- 88
2020-11-03 17:00:00 18.4 15 Este 27 Este 0 1016.5 -- 85
2020-11-03 16:00:00 17.7 19 Este 32 Este 0 1016.3 -- 87
2020-11-03 15:00:00 17.7 24 Este 34 Este 0 1016.6 -- 86
2020-11-03 14:00:00 18.2 20 Este 33 Este 0 1017 -- 84
2020-11-03 13:00:00 18.1 20 Este 31 Este 0 1017.5 -- 82
2020-11-03 12:00:00 17.8 20 Este 31 Este 0 1018.2 -- 85
2020-11-03 11:00:00 17.9 21 Este 37 Este 0 1018.1 -- 83
2020-11-03 10:00:00 16.8 24 Este 35 Este 0 1017.8 -- 87
2020-11-03 09:00:00 16 20 Este 32 Este 0 1017.6 -- 93
2020-11-03 08:00:00 14.7 19 Nordeste 35 Este 0 1016.8 -- 98
2020-11-03 07:00:00 14.6 20 Este 31 Este 0 1016.5 -- 98
2020-11-03 06:00:00 14.4 21 Este 32 Este 0 1016.6 -- 99
2020-11-03 05:00:00 14.5 20 Este 35 Este 0 1016.3 -- 98
2020-11-03 04:00:00 14.4 25 Este 37 Nordeste 0 1016.3 -- 98
2020-11-03 03:00:00 14.9 23 Nordeste 41 Este 0 1016.7 -- 98
2020-11-03 02:00:00 15.3 30 Este 41 Este 0 1016.3 -- 98
2020-11-03 01:00:00 15.8 27 Este 42 Este 0 1016.3 -- 95
2020-11-03 00:00:00 15.9 26 Este 35 Nordeste 0 1017 -- 95
2020-11-02 23:00:00 15.9 23 Nordeste 34 Este 0 1017.2 -- 95
2020-11-02 22:00:00 16.1 17 Nordeste 31 Este 0 1017.3 -- 95
2020-11-02 21:00:00 16.2 20 Nordeste 33 Este 0 1017.2 -- 94
2020-11-02 20:00:00 16.4 20 Este 31 Este 0 1016.9 -- 94
2020-11-02 19:00:00 16.6 16 Este 33 Nordeste 0 1016.4 -- 92
2020-11-02 18:00:00 17.2 20 Este 45 Este 0 1015.8 -- 90
2020-11-02 17:00:00 18.3 28 Este 45 Este 0 1015.3 -- 86
2020-11-02 16:00:00 18.9 23 Este 42 Este 0 1015.5 -- 84
2020-11-02 15:00:00 19.2 26 Este 48 Este 0 1015.6 -- 80
2020-11-02 14:00:00 19.2 29 Este 56 Este 0 1016.1 -- 79
2020-11-02 13:00:00 18.9 37 Este 57 Este 0 1016.6 -- 80
2020-11-02 12:00:00 18.6 39 Este 55 Este 0 1017.2 -- 81
2020-11-02 11:00:00 18.5 33 Este 57 Este 0 1017.3 -- 81
2020-11-02 10:00:00 17.9 30 Este 53 Este 0 1017.1 -- 85
2020-11-02 09:00:00 16.9 31 Este 51 Este 0 1016.8 -- 89
2020-11-02 08:00:00 16.2 33 Este 51 Nordeste 0 1016 -- 92
2020-11-02 07:00:00 16.2 32 Este 46 Este 0 1015.8 -- 94
2020-11-02 06:00:00 16.1 30 Este 48 Este 0 1015.6 -- 95
2020-11-02 05:00:00 15.9 29 Este 45 Este 0 1015.8 -- 96
2020-11-02 04:00:00 16 25 Este 41 Este 0 1016 -- 97
2020-11-02 03:00:00 15.7 27 Este 41 Este 0 1016.3 -- 98
2020-11-02 02:00:00 15.8 26 Este 44 Este 0 1016.3 -- 96
2020-11-02 01:00:00 16.1 26 Este 42 Este 0 1016.8 -- 98
2020-11-02 00:00:00 16.2 24 Este 39 Este 0 1017.2 -- 97